Time;durP1;ratioP1;P1;durP2;ratioP2;P2;SDS_P1;SDS_P2;PMS_P1;PMS_P2;Temp;Humidity;BMP_temperature;BMP_pressure;BME280_temperature;BME280_humidity;BME280_pressure;Samples;Min_cycle;Max_cycle;Signal;HPM_P1;HPM_P2
2022/01/20 00:00:53;;;;;;;0.40;0.30;;;;;;;3.78;100.00;100627.13;5093847;28;20424;-72
2022/01/20 00:03:23;;;;;;;0.40;0.30;;;;;;;3.78;100.00;100613.72;5093121;28;20480;-72
2022/01/20 00:06:38;;;;;;;0.40;0.27;;;;;;;3.78;100.00;100629.78;5093499;28;20440;-72
2022/01/20 00:09:11;;;;;;;0.40;0.30;;;;;;;3.76;100.00;100615.03;5093043;28;20515;-72
2022/01/20 00:28:19;;;;;;;0.40;0.30;;;;;;;4.09;100.00;100635.41;5093148;28;20947;-73
2022/01/20 00:30:50;;;;;;;0.40;0.30;;;;;;;4.09;100.00;100632.72;5093115;28;20914;-73
2022/01/20 00:33:32;;;;;;;0.40;0.30;;;;;;;4.13;100.00;100641.88;5097325;28;20551;-73
2022/01/20 00:38:40;;;;;;;0.40;0.30;;;;;;;4.24;100.00;100635.50;5063284;28;20433;-72
2022/01/20 00:41:12;;;;;;;0.40;0.23;;;;;;;4.27;100.00;100634.19;5097186;28;20448;-72
2022/01/20 00:43:40;;;;;;;0.40;0.30;;;;;;;4.29;100.00;100648.13;5097186;28;20460;-73
2022/01/20 00:46:06;;;;;;;0.40;0.30;;;;;;;4.27;100.00;100639.56;5097134;28;20440;-72
2022/01/20 00:48:33;;;;;;;0.40;0.30;;;;;;;4.25;100.00;100645.19;5097066;28;20452;-73
2022/01/20 00:50:59;;;;;;;0.40;0.30;;;;;;;4.20;100.00;100647.81;5096733;28;20991;-72
2022/01/20 00:53:26;;;;;;;0.40;0.20;;;;;;;4.17;100.00;100651.03;5096867;28;20468;-73
2022/01/20 00:55:52;;;;;;;0.40;0.30;;;;;;;4.16;100.00;100659.28;5096826;28;20480;-73
2022/01/20 00:58:19;;;;;;;0.40;0.30;;;;;;;4.11;100.00;100678.03;5096887;28;20451;-73
2022/01/20 01:00:47;;;;;;;0.40;0.20;;;;;;;4.07;99.80;100653.59;5096872;28;20440;-72
2022/01/20 01:03:13;;;;;;;0.40;0.30;;;;;;;4.04;98.77;100654.13;5096389;28;20483;-72
2022/01/20 01:05:52;;;;;;;0.40;0.23;;;;;;;4.01;98.82;100665.34;5096770;28;20439;-72
2022/01/20 01:08:18;;;;;;;0.40;0.30;;;;;;;3.95;99.27;100661.03;5096739;28;20519;-73
2022/01/20 01:10:46;;;;;;;0.40;0.30;;;;;;;3.93;99.66;100668.50;5096683;28;20441;-72
2022/01/20 01:13:15;;;;;;;0.40;0.30;;;;;;;3.92;100.00;100666.88;5096212;28;20911;-71
2022/01/20 01:15:45;;;;;;;0.40;0.30;;;;;;;3.94;100.00;100667.44;5096506;28;20509;-73
2022/01/20 01:21:27;;;;;;;0.40;0.30;;;;;;;3.91;100.00;100666.06;5096397;28;20481;-74
2022/01/20 01:23:53;;;;;;;0.40;0.30;;;;;;;3.86;100.00;100675.94;5096052;28;20995;-74
2022/01/20 01:26:22;;;;;;;0.40;0.30;;;;;;;3.88;100.00;100687.22;5096330;28;20436;-74
2022/01/20 01:28:50;;;;;;;0.40;0.20;;;;;;;3.86;99.73;100692.03;5096249;28;20452;-74
2022/01/20 01:31:31;;;;;;;0.40;0.30;;;;;;;3.87;99.96;100691.75;5095931;28;20937;-74
2022/01/20 01:34:02;;;;;;;0.40;0.30;;;;;;;3.87;99.25;100699.00;5096221;28;20459;-74
2022/01/20 01:36:39;;;;;;;0.40;0.30;;;;;;;3.90;99.42;100698.50;5096137;28;20472;-74
2022/01/20 01:39:05;;;;;;;0.40;0.23;;;;;;;3.86;98.66;100694.72;5096201;28;20865;-74
2022/01/20 01:41:36;;;;;;;0.40;0.30;;;;;;;3.84;98.52;100696.81;5076786;28;20829;-74
2022/01/20 01:44:07;;;;;;;0.40;0.30;;;;;;;3.88;98.23;100689.88;5075367;28;20994;-75
2022/01/20 01:46:34;;;;;;;0.40;0.30;;;;;;;3.82;97.98;100685.56;5076338;28;20801;-74
2022/01/20 01:49:03;;;;;;;0.40;0.30;;;;;;;3.79;97.60;100687.66;5075393;28;20448;-74
2022/01/20 01:51:29;;;;;;;0.40;0.30;;;;;;;3.76;96.68;100676.63;5075634;28;20467;-73
2022/01/20 01:53:56;;;;;;;0.40;0.30;;;;;;;3.73;96.56;100688.69;5075181;28;20989;-74
2022/01/20 01:56:22;;;;;;;0.40;0.30;;;;;;;3.67;95.14;100687.00;5075138;28;20921;-73
2022/01/20 01:58:49;;;;;;;0.40;0.30;;;;;;;3.62;93.96;100676.25;5075163;28;20448;-74
2022/01/20 02:01:15;;;;;;;0.40;0.30;;;;;;;3.63;93.73;100674.38;5075460;28;20464;-73
2022/01/20 02:03:45;;;;;;;0.40;0.30;;;;;;;3.63;93.25;100685.06;5074944;28;20484;-74
2022/01/20 02:06:40;;;;;;;0.40;0.30;;;;;;;3.62;92.76;100684.28;5075338;28;20447;-73
2022/01/20 02:09:21;;;;;;;0.40;0.30;;;;;;;3.59;92.44;100684.78;5075016;28;20907;-73
2022/01/20 02:20:13;;;;;;;0.40;0.27;;;;;;;3.50;91.36;100686.31;5074911;28;20960;-73
2022/01/20 02:22:40;;;;;;;0.40;0.30;;;;;;;3.49;91.60;100679.31;5075024;28;20465;-72
2022/01/20 02:25:18;;;;;;;0.40;0.30;;;;;;;3.45;90.84;100688.91;5075051;28;20437;-73
2022/01/20 02:27:44;;;;;;;0.40;0.30;;;;;;;3.42;90.88;100686.75;5074734;28;20900;-73
2022/01/20 02:30:12;;;;;;;0.40;0.30;;;;;;;3.43;90.59;100683.00;5074668;28;20448;-72
2022/01/20 02:32:38;;;;;;;0.40;0.30;;;;;;;3.42;91.36;100659.97;5074812;28;20461;-74
2022/01/20 02:35:08;;;;;;;0.40;0.20;;;;;;;3.43;91.47;100659.72;5074389;28;21002;-73
2022/01/20 02:37:36;;;;;;;0.40;0.30;;;;;;;3.40;91.29;100649.50;5074740;28;20449;-73
2022/01/20 02:40:28;;;;;;;0.40;0.30;;;;;;;3.38;90.67;100648.16;5074348;28;20934;-73
2022/01/20 02:45:36;;;;;;;0.40;0.30;;;;;;;3.37;88.57;100649.22;5074412;28;20431;-73
2022/01/20 02:48:02;;;;;;;0.40;0.20;;;;;;;3.34;88.84;100655.06;5074558;28;20510;-74
2022/01/20 02:50:28;;;;;;;0.40;0.30;;;;;;;3.36;88.40;100666.31;5074509;28;20445;-73
2022/01/20 02:52:56;;;;;;;0.40;0.30;;;;;;;3.35;88.67;100660.16;5074065;28;20834;-74
2022/01/20 02:55:23;;;;;;;0.40;0.30;;;;;;;3.34;88.78;100644.34;5073703;28;20485;-73
2022/01/20 02:57:49;;;;;;;0.40;0.30;;;;;;;3.29;89.77;100637.09;5074318;28;20440;-73
2022/01/20 03:00:16;;;;;;;0.40;0.30;;;;;;;3.26;89.73;100627.69;5074235;28;20442;-73
2022/01/20 03:02:43;;;;;;;0.40;0.20;;;;;;;3.25;90.42;100617.22;5073937;28;20469;-73
2022/01/20 03:05:11;;;;;;;0.40;0.30;;;;;;;3.22;90.69;100625.75;5073889;28;20939;-73
2022/01/20 03:07:38;;;;;;;0.40;0.30;;;;;;;3.20;90.69;100615.31;5074207;28;20476;-73
2022/01/20 03:10:07;;;;;;;0.40;0.30;;;;;;;3.19;90.83;100626.28;5074206;28;20524;-73
2022/01/20 03:12:33;;;;;;;0.40;0.30;;;;;;;3.21;90.36;100624.94;5074037;28;20455;-72
2022/01/20 03:15:00;;;;;;;0.40;0.30;;;;;;;3.18;90.31;100620.09;5073690;28;20449;-73
2022/01/20 03:17:26;;;;;;;0.40;0.30;;;;;;;3.23;91.19;100617.50;5073971;28;20471;-72
2022/01/20 03:19:53;;;;;;;0.40;0.20;;;;;;;3.32;90.63;100625.03;5073573;28;20441;-73
2022/01/20 03:22:19;;;;;;;0.40;0.30;;;;;;;3.31;89.90;100615.41;5073499;28;20942;-74
2022/01/20 03:24:46;;;;;;;0.40;0.30;;;;;;;3.34;90.60;100612.22;5073799;28;20441;-74
2022/01/20 03:27:14;;;;;;;0.40;0.30;;;;;;;3.29;91.30;100610.31;5073833;28;20445;-73
2022/01/20 03:29:40;;;;;;;0.40;0.27;;;;;;;3.21;91.83;100598.19;5073439;28;20820;-73
2022/01/20 03:32:07;;;;;;;0.40;0.20;;;;;;;3.19;92.33;100600.31;5073654;28;20437;-74
2022/01/20 03:34:34;;;;;;;0.40;0.27;;;;;;;3.19;92.52;100594.16;5073534;28;20496;-75
2022/01/20 03:37:03;;;;;;;0.40;0.30;;;;;;;3.14;92.97;100605.59;5073581;28;20481;-75
2022/01/20 03:39:30;;;;;;;0.40;0.30;;;;;;;3.13;93.01;100595.16;5073640;28;20451;-75
2022/01/20 03:41:56;;;;;;;0.40;0.30;;;;;;;3.16;94.23;100578.59;5073555;28;20441;-76
2022/01/20 03:44:24;;;;;;;0.40;0.30;;;;;;;3.15;93.26;100595.72;5073181;28;20468;-75
2022/01/20 03:46:51;;;;;;;0.40;0.30;;;;;;;3.20;92.30;100598.44;5073466;28;20445;-75
2022/01/20 03:49:27;;;;;;;0.40;0.20;;;;;;;3.24;91.48;100586.97;5073479;28;20444;-75
2022/01/20 03:51:54;;;;;;;0.40;0.30;;;;;;;3.23;92.29;100572.00;5073474;28;20472;-76
2022/01/20 03:54:20;;;;;;;0.40;0.30;;;;;;;3.27;91.75;100570.41;5073341;28;20453;-76
2022/01/20 03:56:47;;;;;;;0.40;0.30;;;;;;;3.33;92.02;100563.25;5073354;28;20481;-76
2022/01/20 03:59:14;;;;;;;0.40;0.30;;;;;;;3.34;91.38;100564.06;5073448;28;20440;-76
2022/01/20 04:01:42;;;;;;;0.40;0.30;;;;;;;3.34;91.08;100567.53;5073134;28;20445;-75
2022/01/20 04:04:08;;;;;;;0.40;0.30;;;;;;;3.35;90.96;100552.28;5072958;28;20469;-76
2022/01/20 04:06:35;;;;;;;0.40;0.30;;;;;;;3.40;91.34;100541.59;5073038;28;20931;-75
2022/01/20 04:09:04;;;;;;;0.40;0.30;;;;;;;3.36;90.97;100581.47;5073382;28;20528;-76
2022/01/20 04:11:31;;;;;;;0.40;0.30;;;;;;;3.41;91.37;100556.59;5073350;28;20445;-76
2022/01/20 04:13:58;;;;;;;0.40;0.30;;;;;;;3.44;90.76;100569.50;5072983;28;20816;-75
2022/01/20 04:16:33;;;;;;;0.40;0.30;;;;;;;3.47;91.08;100585.06;5073284;28;20481;-76
2022/01/20 04:19:06;;;;;;;0.40;0.30;;;;;;;3.09;95.00;100677.78;5073312;28;20433;-75
2022/01/20 04:21:32;;;;;;;0.40;0.30;;;;;;;2.16;99.24;100682.88;5073204;28;20426;-75
2022/01/20 04:24:01;;;;;;;0.40;0.30;;;;;;;1.72;100.00;100666.66;5072753;28;20465;-75
2022/01/20 04:26:28;;;;;;;0.40;0.30;;;;;;;1.44;100.00;100672.81;5072896;28;20437;-74
2022/01/20 04:28:56;;;;;;;0.40;0.30;;;;;;;1.30;100.00;100676.81;5073068;28;20445;-76
2022/01/20 04:31:23;;;;;;;0.40;0.30;;;;;;;1.15;100.00;100679.19;5072854;28;20532;-75
2022/01/20 04:33:49;;;;;;;0.40;0.30;;;;;;;1.07;100.00;100661.72;5073121;28;20469;-74
2022/01/20 04:36:17;;;;;;;0.40;0.30;;;;;;;1.03;100.00;100657.88;5072673;28;20856;-74
2022/01/20 04:38:44;;;;;;;0.40;0.30;;;;;;;0.90;100.00;100647.47;5072754;28;20456;-74
2022/01/20 04:41:11;;;;;;;0.40;0.30;;;;;;;0.88;100.00;100646.91;5073038;28;20434;-73
2022/01/20 04:43:38;;;;;;;0.40;0.30;;;;;;;0.88;100.00;100638.91;5072929;28;20487;-73
2022/01/20 04:46:11;;;;;;;0.40;0.30;;;;;;;0.86;100.00;100630.34;5073034;28;20441;-73
2022/01/20 04:48:49;;;;;;;0.40;0.30;;;;;;;0.90;100.00;100626.97;5072945;28;20441;-73
2022/01/20 04:57:14;;;;;;;0.40;0.30;;;;;;;0.97;100.00;100642.81;5071720;28;20525;-74
2022/01/20 04:59:40;;;;;;;0.40;0.30;;;;;;;1.00;100.00;100642.34;5072932;28;20475;-74
2022/01/20 05:02:07;;;;;;;0.40;0.30;;;;;;;1.00;100.00;100631.69;5072356;28;20449;-74
2022/01/20 05:04:34;;;;;;;0.40;0.30;;;;;;;1.06;100.00;100649.41;5072742;28;20466;-75
2022/01/20 05:07:02;;;;;;;0.40;0.30;;;;;;;1.12;100.00;100653.81;5072520;28;20494;-75
2022/01/20 05:09:29;;;;;;;0.40;0.30;;;;;;;1.14;100.00;100637.56;5072383;28;20946;-75
2022/01/20 05:12:01;;;;;;;0.40;0.30;;;;;;;1.15;100.00;100641.84;5072366;28;20430;-74
2022/01/20 05:14:28;;;;;;;0.40;0.30;;;;;;;1.19;100.00;100642.97;5072579;28;20457;-74
2022/01/20 05:16:55;;;;;;;0.40;0.30;;;;;;;1.22;100.00;100661.19;5072550;28;21111;-74
2022/01/20 05:19:22;;;;;;;0.40;0.30;;;;;;;1.24;100.00;100638.56;5076248;28;20863;-74
2022/01/20 05:21:49;;;;;;;0.40;0.30;;;;;;;1.32;100.00;100636.56;5076178;28;20488;-74
2022/01/20 05:24:17;;;;;;;0.40;0.30;;;;;;;1.35;100.00;100634.22;5076055;28;20461;-75
2022/01/20 05:26:43;;;;;;;0.40;0.30;;;;;;;1.38;100.00;100619.63;5075819;28;20441;-74
2022/01/20 05:29:10;;;;;;;0.40;0.30;;;;;;;1.40;100.00;100630.84;5075689;28;20436;-74
2022/01/20 05:31:37;;;;;;;0.40;0.30;;;;;;;1.44;100.00;100626.66;5076075;28;20441;-75
2022/01/20 05:34:03;;;;;;;0.40;0.30;;;;;;;1.42;100.00;100618.09;5075950;28;20483;-75
2022/01/20 05:36:30;;;;;;;0.40;0.30;;;;;;;1.44;100.00;100626.66;5075860;28;20504;-76
2022/01/20 05:38:56;;;;;;;0.40;0.30;;;;;;;1.47;100.00;100626.19;5075944;28;20449;-75
2022/01/20 05:41:24;;;;;;;0.40;0.30;;;;;;;1.47;100.00;100639.53;5075461;28;20443;-77
2022/01/20 05:43:51;;;;;;;0.40;0.30;;;;;;;1.40;100.00;100628.19;5075511;28;20468;-77
2022/01/20 05:46:22;;;;;;;0.40;0.30;;;;;;;1.46;100.00;100635.22;5075357;28;20438;-74
2022/01/20 05:48:49;;;;;;;0.40;0.30;;;;;;;1.47;100.00;100628.84;5075230;28;20903;-70
2022/01/20 05:51:16;;;;;;;0.40;0.30;;;;;;;1.51;99.35;100635.34;5077470;28;20449;-75
2022/01/20 05:53:43;;;;;;;0.40;0.30;;;;;;;1.52;100.00;100656.44;5075686;28;20484;-75
2022/01/20 05:56:09;;;;;;;0.40;0.30;;;;;;;1.53;99.60;100641.22;5075655;28;20515;-75
2022/01/20 05:58:37;;;;;;;0.40;0.30;;;;;;;1.56;99.50;100654.09;5075535;28;20437;-76
2022/01/20 06:01:04;;;;;;;0.40;0.30;;;;;;;1.60;97.24;100646.44;5074544;28;20468;-75
2022/01/20 06:03:37;;;;;;;0.40;0.30;;;;;;;1.62;95.37;100663.00;5075294;28;20469;-75
2022/01/20 06:06:04;;;;;;;0.40;0.30;;;;;;;1.57;93.22;100685.06;5075587;28;20436;-73
2022/01/20 06:08:30;;;;;;;0.40;0.30;;;;;;;1.59;93.57;100679.50;5075387;28;20437;-75
2022/01/20 06:10:57;;;;;;;0.40;0.30;;;;;;;1.58;94.20;100685.88;5075071;28;20449;-75
2022/01/20 06:13:24;;;;;;;0.40;0.30;;;;;;;1.53;93.06;100699.94;5075238;28;20461;-74
2022/01/20 06:15:52;;;;;;;0.40;0.30;;;;;;;1.54;90.58;100700.75;5074804;28;20437;-75
2022/01/20 06:18:19;;;;;;;0.40;0.30;;;;;;;1.50;90.21;100687.06;5075184;28;20821;-73
2022/01/20 06:20:47;;;;;;;0.40;0.30;;;;;;;1.39;85.67;100720.75;5075038;28;20500;-75
2022/01/20 06:23:13;;;;;;;0.40;0.30;;;;;;;1.40;84.67;100726.91;5075046;28;20461;-72
2022/01/20 06:25:41;;;;;;;0.40;0.30;;;;;;;1.42;80.98;100724.84;5074833;28;20873;-73
2022/01/20 06:28:08;;;;;;;0.40;0.30;;;;;;;1.33;80.67;100728.88;5074463;28;20619;-71
2022/01/20 06:30:35;;;;;;;0.40;0.30;;;;;;;1.26;77.92;100721.84;5073963;28;20445;-73
2022/01/20 06:33:04;;;;;;;0.40;0.30;;;;;;;1.31;76.10;100720.31;5074441;28;20457;-72
2022/01/20 06:35:32;;;;;;;0.40;0.30;;;;;;;1.18;72.58;100730.19;5074789;28;20445;-72
2022/01/20 06:37:59;;;;;;;0.40;0.30;;;;;;;1.16;71.17;100753.66;5074310;28;20485;-72
2022/01/20 06:40:26;;;;;;;0.40;0.30;;;;;;;1.18;70.84;100751.53;5074686;28;20444;-72
2022/01/20 06:42:53;;;;;;;0.40;0.30;;;;;;;1.20;69.98;100764.66;5074552;28;20829;-73
2022/01/20 06:45:23;;;;;;;0.40;0.30;;;;;;;1.15;70.57;100769.88;5074314;28;20440;-73
2022/01/20 06:47:49;;;;;;;0.40;0.30;;;;;;;1.13;71.92;100783.44;5074394;28;20487;-73
2022/01/20 06:50:18;;;;;;;0.40;0.30;;;;;;;1.08;73.46;100794.00;5074464;28;20795;-73
2022/01/20 06:52:44;;;;;;;0.40;0.30;;;;;;;1.05;73.27;100789.13;5074330;28;20468;-73
2022/01/20 06:55:13;;;;;;;0.40;0.30;;;;;;;1.04;72.90;100786.72;5074219;28;20444;-73
2022/01/20 06:57:41;;;;;;;0.40;0.30;;;;;;;1.06;72.51;100805.94;5074253;28;20485;-73
2022/01/20 07:00:10;;;;;;;0.40;0.30;;;;;;;1.03;73.13;100799.25;5074213;28;20448;-73
2022/01/20 07:02:36;;;;;;;0.40;0.30;;;;;;;1.02;73.98;100805.63;5073980;28;20464;-73
2022/01/20 07:05:04;;;;;;;0.40;0.30;;;;;;;1.04;74.28;100806.19;5074020;28;20441;-74
2022/01/20 07:07:32;;;;;;;0.40;0.30;;;;;;;1.06;73.75;100808.63;5074357;28;20444;-73
2022/01/20 07:09:59;;;;;;;0.40;0.30;;;;;;;1.12;74.67;100821.84;5074040;28;20456;-73
2022/01/20 07:12:26;;;;;;;0.40;0.30;;;;;;;1.18;73.75;100820.91;5074044;28;20445;-73
2022/01/20 07:14:52;;;;;;;0.40;0.30;;;;;;;1.23;74.67;100833.53;5074029;28;20442;-73
2022/01/20 07:17:19;;;;;;;0.40;0.30;;;;;;;1.27;73.72;100867.53;5073570;28;21028;-72
2022/01/20 07:19:45;;;;;;;0.40;0.30;;;;;;;1.32;73.28;100860.69;5073593;28;20441;-74
2022/01/20 07:22:12;;;;;;;0.40;0.30;;;;;;;1.30;72.29;100860.13;5073828;28;20814;-72
2022/01/20 07:24:40;;;;;;;0.40;0.30;;;;;;;1.24;75.45;100878.69;5073715;28;20536;-71
2022/01/20 07:27:06;;;;;;;0.40;0.30;;;;;;;1.27;74.70;100878.19;5073712;28;20453;-72
2022/01/20 07:29:33;;;;;;;0.40;0.30;;;;;;;1.26;75.06;100878.44;5073673;28;20441;-73
2022/01/20 07:32:01;;;;;;;0.40;0.30;;;;;;;1.20;76.14;100890.88;5073529;28;20450;-73
2022/01/20 07:34:28;;;;;;;0.40;0.30;;;;;;;1.24;74.56;100886.69;5073249;28;20497;-73
2022/01/20 07:36:54;;;;;;;0.40;0.30;;;;;;;1.22;74.89;100886.09;5073441;28;20488;-73
2022/01/20 07:39:21;;;;;;;0.40;0.30;;;;;;;1.32;75.13;100890.84;5073267;28;20969;-73
2022/01/20 07:41:49;;;;;;;0.40;0.30;;;;;;;1.37;74.23;100901.63;5073170;28;20438;-72
2022/01/20 07:44:17;;;;;;;0.40;0.30;;;;;;;1.34;75.78;100885.28;5073397;28;20469;-73
2022/01/20 07:46:44;;;;;;;0.40;0.30;;;;;;;1.33;75.84;100900.50;5073571;28;20445;-72
2022/01/20 07:49:11;;;;;;;0.40;0.30;;;;;;;1.31;75.06;100894.56;5073452;28;20468;-72
2022/01/20 07:51:37;;;;;;;0.40;0.30;;;;;;;1.33;73.49;100891.66;5073341;28;20447;-72
2022/01/20 07:54:04;;;;;;;0.40;0.30;;;;;;;1.31;72.36;100891.09;5073277;28;20468;-73
2022/01/20 07:56:30;;;;;;;0.40;0.30;;;;;;;1.28;72.79;100895.03;5073274;28;20529;-73
2022/01/20 07:58:58;;;;;;;0.40;0.30;;;;;;;1.31;73.13;100888.41;5073145;28;20441;-72
2022/01/20 08:01:25;;;;;;;0.40;0.30;;;;;;;1.26;72.42;100897.94;5073321;28;20450;-72
2022/01/20 08:03:52;;;;;;;0.40;0.30;;;;;;;1.27;72.80;100912.06;5072683;28;20477;-72
2022/01/20 08:06:19;;;;;;;0.40;0.30;;;;;;;1.28;72.55;100913.69;5073200;28;20433;-73
2022/01/20 08:08:46;;;;;;;0.40;0.30;;;;;;;1.31;74.23;100918.59;5073074;28;20445;-73
2022/01/20 08:11:13;;;;;;;0.40;0.30;;;;;;;1.38;72.55;100923.81;5073093;28;20499;-71
2022/01/20 08:13:40;;;;;;;0.40;0.30;;;;;;;1.38;71.37;100919.28;5072749;28;20993;-74
2022/01/20 08:16:08;;;;;;;0.40;0.30;;;;;;;1.40;71.63;100929.72;5073087;28;20437;-73
2022/01/20 08:18:34;;;;;;;0.40;0.30;;;;;;;1.41;71.83;100928.66;5073057;28;20484;-71
2022/01/20 08:21:00;;;;;;;0.40;0.30;;;;;;;1.41;72.95;100936.69;5072688;28;20950;-72
2022/01/20 08:23:27;;;;;;;0.40;0.30;;;;;;;1.45;72.32;100941.31;5073000;28;20468;-70
2022/01/20 08:25:54;;;;;;;0.40;0.30;;;;;;;1.50;69.96;100935.28;5072682;28;20962;-72
2022/01/20 08:28:22;;;;;;;0.40;0.30;;;;;;;1.58;71.07;100942.16;5073022;28;20464;-72
2022/01/20 08:30:49;;;;;;;0.40;0.30;;;;;;;1.56;71.39;100937.06;5072676;28;20845;-72
2022/01/20 08:33:18;;;;;;;0.40;0.30;;;;;;;1.57;72.48;100941.34;5072487;28;20457;-72
2022/01/20 08:35:44;;;;;;;0.40;0.30;;;;;;;1.55;70.80;100938.09;5072661;28;20943;-72
2022/01/20 08:38:11;;;;;;;0.40;0.30;;;;;;;1.65;70.85;100950.84;5072966;28;20481;-78
2022/01/20 08:40:38;;;;;;;0.40;0.30;;;;;;;1.65;70.07;100941.00;5078209;28;20950;-73
2022/01/20 08:43:06;;;;;;;0.40;0.30;;;;;;;1.71;69.46;100941.91;5073071;28;20468;-70
2022/01/20 08:45:34;;;;;;;0.40;0.30;;;;;;;1.75;70.51;100959.91;5072693;28;20801;-71
2022/01/20 08:48:01;;;;;;;0.40;0.30;;;;;;;1.81;69.50;100962.69;5088966;28;20452;-72
2022/01/20 08:50:33;;;;;;;0.40;0.30;;;;;;;1.88;69.21;100971.38;5093029;28;20441;-72
2022/01/20 08:52:59;;;;;;;0.40;0.30;;;;;;;1.95;69.82;100972.09;5095389;28;20460;-72
2022/01/20 08:55:27;;;;;;;0.40;0.30;;;;;;;2.04;67.94;100968.00;5096887;28;20433;-72
2022/01/20 08:57:54;;;;;;;0.40;0.30;;;;;;;2.15;68.32;100963.69;5096807;28;20910;-72
2022/01/20 09:00:21;;;;;;;0.40;0.30;;;;;;;2.27;70.56;100957.28;5096614;28;20440;-71
2022/01/20 09:02:48;;;;;;;0.40;0.30;;;;;;;2.40;69.26;100955.38;5096497;28;20472;-72
2022/01/20 09:05:14;;;;;;;0.40;0.30;;;;;;;2.48;69.73;100960.34;5096466;28;20960;-73
2022/01/20 09:07:42;;;;;;;0.40;0.30;;;;;;;2.50;68.71;100956.38;5096689;28;20447;-72
2022/01/20 09:10:18;;;;;;;0.40;0.30;;;;;;;2.49;69.87;100957.44;5096526;28;20444;-73
2022/01/20 09:15:28;;;;;;;0.40;0.30;;;;;;;2.53;69.72;100963.13;5096423;28;20400;-72
2022/01/20 09:17:55;;;;;;;0.40;0.40;;;;;;;2.48;69.18;100979.06;5096108;28;20483;-73
2022/01/20 09:20:22;;;;;;;0.40;0.30;;;;;;;2.45;70.57;100974.19;5096141;28;20801;-71
2022/01/20 09:22:51;;;;;;;0.40;0.30;;;;;;;2.45;70.96;100979.53;5096370;28;20460;-72
2022/01/20 09:25:18;;;;;;;0.40;0.30;;;;;;;2.49;73.19;100986.03;5096426;28;20471;-72
2022/01/20 09:27:45;;;;;;;0.40;0.30;;;;;;;2.48;72.72;100979.06;5096001;28;20956;-72
2022/01/20 09:30:17;;;;;;;0.40;0.30;;;;;;;2.46;71.88;100987.31;5096275;28;20449;-73
2022/01/20 09:32:46;;;;;;;0.40;0.20;;;;;;;2.51;71.91;100983.91;5096181;28;20464;-72
2022/01/20 09:35:13;;;;;;;0.40;0.30;;;;;;;2.59;72.62;100983.56;5096053;28;20538;-73
2022/01/20 09:37:40;;;;;;;0.40;0.30;;;;;;;2.57;71.39;100983.00;5095687;28;20480;-74
2022/01/20 09:40:10;;;;;;;0.40;0.30;;;;;;;2.58;71.19;100975.78;5096059;28;20926;-73
2022/01/20 09:42:37;;;;;;;0.40;0.30;;;;;;;2.58;71.27;100979.25;5095927;28;20455;-73
2022/01/20 09:45:04;;;;;;;0.40;0.30;;;;;;;2.66;71.05;100986.91;5095926;28;20443;-72
2022/01/20 09:47:31;;;;;;;0.40;0.30;;;;;;;2.68;70.84;100987.47;5095907;28;20452;-72
2022/01/20 09:49:57;;;;;;;0.40;0.30;;;;;;;2.73;70.94;100992.09;5095512;28;20440;-74
2022/01/20 09:52:25;;;;;;;0.40;0.30;;;;;;;2.78;70.55;100998.34;5095773;28;20440;-74
2022/01/20 09:54:51;;;;;;;0.40;0.30;;;;;;;2.74;70.35;100996.38;5095816;28;20498;-73
2022/01/20 09:57:19;;;;;;;0.40;0.30;;;;;;;2.74;68.93;101007.09;5095714;28;20451;-71
2022/01/20 09:59:46;;;;;;;0.40;0.30;;;;;;;2.75;69.95;100998.03;5095681;28;20518;-74
2022/01/20 10:02:18;;;;;;;0.40;0.30;;;;;;;2.77;69.54;101007.44;5095538;28;20452;-73
2022/01/20 10:04:44;;;;;;;0.40;0.30;;;;;;;2.76;69.39;101005.81;5095285;28;20898;-74
2022/01/20 10:07:14;;;;;;;0.40;0.23;;;;;;;2.84;69.99;101009.97;5095608;28;20440;-73
2022/01/20 10:09:44;;;;;;;0.40;0.30;;;;;;;2.85;68.89;100997.41;5095385;28;20436;-74
2022/01/20 10:12:14;;;;;;;0.40;0.30;;;;;;;2.86;69.67;101007.84;5095580;28;20504;-73
2022/01/20 10:14:43;;;;;;;0.40;0.30;;;;;;;2.89;68.77;101003.91;5095323;28;20539;-73
2022/01/20 10:17:18;;;;;;;0.40;0.20;;;;;;;2.90;69.07;101008.19;5095292;28;20440;-73
2022/01/20 10:19:45;;;;;;;0.40;0.20;;;;;;;2.95;69.14;101013.63;5095035;28;20948;-74
2022/01/20 10:22:14;;;;;;;0.40;0.30;;;;;;;3.03;69.01;101003.34;5095247;28;20436;-74
2022/01/20 10:24:41;;;;;;;0.40;0.30;;;;;;;3.11;70.09;101010.19;5095088;28;20513;-74
2022/01/20 10:27:12;;;;;;;0.40;0.27;;;;;;;3.13;68.13;101015.28;5095194;28;20436;-74
2022/01/20 10:29:38;;;;;;;0.40;0.30;;;;;;;3.14;68.30;101012.38;5094824;28;20941;-74
2022/01/20 10:32:07;;;;;;;0.40;0.30;;;;;;;3.12;68.86;101006.47;5095121;28;20455;-74
2022/01/20 10:34:36;;;;;;;0.40;0.30;;;;;;;3.16;67.65;101007.59;5094977;28;20468;-73
2022/01/20 10:37:07;;;;;;;0.40;0.20;;;;;;;3.14;68.45;101008.88;5095021;28;20447;-74
2022/01/20 10:39:37;;;;;;;0.40;0.30;;;;;;;3.18;67.39;101024.22;5094845;28;20465;-73
2022/01/20 10:42:06;;;;;;;0.40;0.30;;;;;;;3.19;67.65;101031.22;5095173;28;20444;-74
2022/01/20 10:44:45;;;;;;;0.40;0.30;;;;;;;3.16;68.54;101015.63;5094770;28;20444;-74
2022/01/20 10:47:14;;;;;;;0.40;0.30;;;;;;;3.21;68.42;101029.09;5094759;28;20440;-74
2022/01/20 10:49:42;;;;;;;0.40;0.30;;;;;;;3.24;68.96;101019.78;5094424;28;20922;-74
2022/01/20 10:52:11;;;;;;;0.40;0.30;;;;;;;3.30;67.38;101021.50;5094395;28;20817;-74
2022/01/20 10:54:40;;;;;;;0.40;0.30;;;;;;;3.31;68.19;101019.63;5094609;28;20463;-74
2022/01/20 10:57:08;;;;;;;0.40;0.20;;;;;;;3.16;67.68;101012.16;5094333;28;20964;-74
2022/01/20 10:59:46;;;;;;;0.40;0.30;;;;;;;3.19;68.41;101028.53;5094170;28;20901;-73
2022/01/20 11:02:14;;;;;;;0.40;0.30;;;;;;;3.20;67.38;101014.09;5094057;28;21052;-75
2022/01/20 11:04:41;;;;;;;0.40;0.27;;;;;;;3.15;67.10;101010.53;5094144;28;20467;-74
2022/01/20 11:07:08;;;;;;;0.40;0.30;;;;;;;3.16;67.13;101001.44;5094488;28;20808;-74
2022/01/20 11:09:39;;;;;;;0.40;0.20;;;;;;;3.21;66.31;100996.97;5094406;28;20441;-74
2022/01/20 11:12:06;;;;;;;0.40;0.27;;;;;;;3.28;67.20;100994.97;5094422;28;20429;-75
2022/01/20 11:14:34;;;;;;;0.40;0.30;;;;;;;3.38;66.15;100988.97;5093469;28;20985;-73
2022/01/20 11:17:03;;;;;;;0.40;0.30;;;;;;;3.44;65.93;100995.22;5094210;28;20501;-74
2022/01/20 11:19:35;;;;;;;0.40;0.30;;;;;;;3.50;66.25;101003.09;5094145;28;20476;-74
2022/01/20 11:22:08;;;;;;;0.40;0.20;;;;;;;3.57;64.15;101002.91;5094190;28;20424;-75
2022/01/20 11:24:35;;;;;;;0.40;0.23;;;;;;;3.62;63.37;101002.19;5093929;28;20464;-73
2022/01/20 11:27:04;;;;;;;0.40;0.20;;;;;;;3.67;62.87;100996.91;5094158;28;20448;-74
2022/01/20 11:29:42;;;;;;;0.40;0.20;;;;;;;3.63;62.25;101009.16;5093998;28;20441;-74
2022/01/20 11:32:21;;;;;;;0.40;0.30;;;;;;;3.66;61.72;101000.66;5093632;28;20436;-74
2022/01/20 11:35:01;;;;;;;0.40;0.30;;;;;;;3.67;61.50;100994.22;5093594;28;20823;-73
2022/01/20 11:37:29;;;;;;;0.40;0.30;;;;;;;3.71;60.73;100998.03;5094706;28;20432;-74
2022/01/20 11:40:09;;;;;;;0.40;0.30;;;;;;;3.83;62.00;101004.13;5093712;28;20868;-74
2022/01/20 11:42:36;;;;;;;0.40;0.30;;;;;;;4.03;62.90;101011.66;5093678;28;20428;-74
2022/01/20 11:45:22;;;;;;;0.40;0.30;;;;;;;3.96;60.70;101011.00;5093725;28;20448;-74
2022/01/20 11:47:48;;;;;;;0.40;0.30;;;;;;;3.95;60.20;101010.19;5093543;28;20431;-74
2022/01/20 11:50:17;;;;;;;0.40;0.30;;;;;;;4.04;62.99;101007.91;5094149;28;20444;-75
2022/01/20 11:52:43;;;;;;;0.40;0.30;;;;;;;4.20;61.41;101015.06;5093412;28;20460;-73
2022/01/20 11:55:11;;;;;;;0.40;0.30;;;;;;;4.39;60.39;101017.50;5093262;28;20440;-72
2022/01/20 11:57:38;;;;;;;0.40;0.30;;;;;;;4.53;60.26;101021.41;5093492;28;20437;-73
2022/01/20 12:00:22;;;;;;;0.40;0.30;;;;;;;4.71;58.26;101039.88;5093575;28;20445;-76
2022/01/20 12:02:49;;;;;;;0.40;0.30;;;;;;;4.74;58.48;101022.47;5093195;28;20476;-74
2022/01/20 12:05:26;;;;;;;0.40;0.30;;;;;;;4.99;57.69;101030.78;5093525;28;20444;-74
2022/01/20 12:08:04;;;;;;;0.40;0.30;;;;;;;5.12;56.97;101013.47;5093142;28;20898;-74
2022/01/20 12:10:31;;;;;;;0.40;0.30;;;;;;;5.12;56.71;101023.38;5093508;28;20450;-74
2022/01/20 12:13:05;;;;;;;0.40;0.20;;;;;;;5.19;57.55;101016.75;5093300;28;20461;-74
2022/01/20 12:15:32;;;;;;;0.40;0.30;;;;;;;5.20;57.00;101015.69;5093035;28;20905;-72
2022/01/20 12:17:59;;;;;;;0.40;0.30;;;;;;;5.46;56.58;100999.81;5093437;28;20444;-72
2022/01/20 12:20:27;;;;;;;0.40;0.30;;;;;;;5.51;55.41;101029.38;5093044;28;20444;-72